sensor_id;sensor_type;location;lat;lon;timestamp;temperature;humidity
20839;DHT22;10580;51.092;6.828;2022-12-18T00:01:37;-3.80;99.90
20839;DHT22;10580;51.092;6.828;2022-12-18T00:04:21;-3.70;99.90
20839;DHT22;10580;51.092;6.828;2022-12-18T00:06:46;-3.70;99.90
20839;DHT22;10580;51.092;6.828;2022-12-18T00:09:12;-3.80;99.90
20839;DHT22;10580;51.092;6.828;2022-12-18T00:11:38;-3.80;99.90
20839;DHT22;10580;51.092;6.828;2022-12-18T00:14:03;-3.80;99.90
20839;DHT22;10580;51.092;6.828;2022-12-18T00:16:29;-3.80;99.90
20839;DHT22;10580;51.092;6.828;2022-12-18T00:19:01;-3.80;99.90
20839;DHT22;10580;51.092;6.828;2022-12-18T00:21:28;-3.80;99.90
20839;DHT22;10580;51.092;6.828;2022-12-18T00:23:55;-3.90;99.90
20839;DHT22;10580;51.092;6.828;2022-12-18T00:26:25;-3.80;99.90
20839;DHT22;10580;51.092;6.828;2022-12-18T00:28:52;-3.80;99.90
20839;DHT22;10580;51.092;6.828;2022-12-18T00:31:22;-3.80;99.90
20839;DHT22;10580;51.092;6.828;2022-12-18T00:33:48;-3.90;99.90
20839;DHT22;10580;51.092;6.828;2022-12-18T00:36:17;-3.90;99.90
20839;DHT22;10580;51.092;6.828;2022-12-18T00:38:43;-3.90;99.90
20839;DHT22;10580;51.092;6.828;2022-12-18T00:41:11;-3.90;99.90
20839;DHT22;10580;51.092;6.828;2022-12-18T00:43:38;-3.90;99.90
20839;DHT22;10580;51.092;6.828;2022-12-18T00:46:05;-3.80;99.90
20839;DHT22;10580;51.092;6.828;2022-12-18T00:48:31;-3.80;99.90
20839;DHT22;10580;51.092;6.828;2022-12-18T00:50:57;-3.80;99.90
20839;DHT22;10580;51.092;6.828;2022-12-18T00:53:23;-3.80;99.90
20839;DHT22;10580;51.092;6.828;2022-12-18T00:55:48;-3.80;99.90
20839;DHT22;10580;51.092;6.828;2022-12-18T00:58:15;-3.80;99.90
20839;DHT22;10580;51.092;6.828;2022-12-18T01:00:42;-3.90;99.90
20839;DHT22;10580;51.092;6.828;2022-12-18T01:03:08;-3.80;99.90
20839;DHT22;10580;51.092;6.828;2022-12-18T01:05:38;-3.80;99.90
20839;DHT22;10580;51.092;6.828;2022-12-18T01:08:04;-3.80;99.90
20839;DHT22;10580;51.092;6.828;2022-12-18T01:10:29;-3.80;99.90
20839;DHT22;10580;51.092;6.828;2022-12-18T01:12:55;-3.80;99.90
20839;DHT22;10580;51.092;6.828;2022-12-18T01:15:21;-3.80;99.90
20839;DHT22;10580;51.092;6.828;2022-12-18T01:17:46;-3.80;99.90
20839;DHT22;10580;51.092;6.828;2022-12-18T01:20:13;-3.80;99.90
20839;DHT22;10580;51.092;6.828;2022-12-18T01:22:38;-3.80;99.90
20839;DHT22;10580;51.092;6.828;2022-12-18T01:25:05;-3.80;99.90
20839;DHT22;10580;51.092;6.828;2022-12-18T01:27:32;-3.80;99.90
20839;DHT22;10580;51.092;6.828;2022-12-18T01:29:58;-3.80;99.90
20839;DHT22;10580;51.092;6.828;2022-12-18T01:32:23;-3.80;99.90
20839;DHT22;10580;51.092;6.828;2022-12-18T01:34:49;-3.80;99.90
20839;DHT22;10580;51.092;6.828;2022-12-18T01:37:15;-3.80;99.90
20839;DHT22;10580;51.092;6.828;2022-12-18T01:39:40;-3.80;99.90
20839;DHT22;10580;51.092;6.828;2022-12-18T01:42:12;-3.90;99.90
20839;DHT22;10580;51.092;6.828;2022-12-18T01:45:04;-3.90;99.90
20839;DHT22;10580;51.092;6.828;2022-12-18T01:47:38;-3.90;99.90
20839;DHT22;10580;51.092;6.828;2022-12-18T01:50:21;-3.80;99.90
20839;DHT22;10580;51.092;6.828;2022-12-18T01:53:07;-3.80;99.90
20839;DHT22;10580;51.092;6.828;2022-12-18T01:55:41;-3.70;99.90
20839;DHT22;10580;51.092;6.828;2022-12-18T01:58:07;-3.70;99.90
20839;DHT22;10580;51.092;6.828;2022-12-18T02:00:33;-3.70;99.90
20839;DHT22;10580;51.092;6.828;2022-12-18T02:02:59;-3.60;99.90
20839;DHT22;10580;51.092;6.828;2022-12-18T02:05:39;-3.70;99.90
20839;DHT22;10580;51.092;6.828;2022-12-18T02:08:20;-3.60;99.90
20839;DHT22;10580;51.092;6.828;2022-12-18T02:11:07;-3.60;99.90
20839;DHT22;10580;51.092;6.828;2022-12-18T02:13:44;-3.50;99.90
20839;DHT22;10580;51.092;6.828;2022-12-18T02:16:26;-3.60;99.90
20839;DHT22;10580;51.092;6.828;2022-12-18T02:19:00;-3.60;99.90
20839;DHT22;10580;51.092;6.828;2022-12-18T02:21:42;-3.50;99.90
20839;DHT22;10580;51.092;6.828;2022-12-18T02:24:41;-3.60;99.90
20839;DHT22;10580;51.092;6.828;2022-12-18T02:27:09;-3.50;99.90
20839;DHT22;10580;51.092;6.828;2022-12-18T02:29:40;-3.50;99.90
20839;DHT22;10580;51.092;6.828;2022-12-18T02:32:17;-3.50;99.90
20839;DHT22;10580;51.092;6.828;2022-12-18T02:34:46;-3.50;99.90
20839;DHT22;10580;51.092;6.828;2022-12-18T02:37:14;-3.60;99.90
20839;DHT22;10580;51.092;6.828;2022-12-18T02:39:43;-3.50;99.90
20839;DHT22;10580;51.092;6.828;2022-12-18T02:42:10;-3.60;99.90
20839;DHT22;10580;51.092;6.828;2022-12-18T02:44:45;-3.60;99.90
20839;DHT22;10580;51.092;6.828;2022-12-18T02:47:12;-3.60;99.90
20839;DHT22;10580;51.092;6.828;2022-12-18T02:49:58;-3.50;99.90
20839;DHT22;10580;51.092;6.828;2022-12-18T02:55:11;-3.40;99.90
20839;DHT22;10580;51.092;6.828;2022-12-18T02:57:46;-3.40;99.90
20839;DHT22;10580;51.092;6.828;2022-12-18T03:02:59;-3.30;99.90
20839;DHT22;10580;51.092;6.828;2022-12-18T03:05:36;-3.30;99.90
20839;DHT22;10580;51.092;6.828;2022-12-18T03:08:12;-3.30;99.90
20839;DHT22;10580;51.092;6.828;2022-12-18T03:10:45;-3.30;99.90
20839;DHT22;10580;51.092;6.828;2022-12-18T03:13:20;-3.30;99.90
20839;DHT22;10580;51.092;6.828;2022-12-18T03:15:50;-3.30;99.90
20839;DHT22;10580;51.092;6.828;2022-12-18T03:18:25;-3.40;99.90
20839;DHT22;10580;51.092;6.828;2022-12-18T03:20:53;-3.40;99.90
20839;DHT22;10580;51.092;6.828;2022-12-18T03:23:24;-3.40;99.90
20839;DHT22;10580;51.092;6.828;2022-12-18T03:25:54;-3.40;99.90
20839;DHT22;10580;51.092;6.828;2022-12-18T03:28:22;-3.40;99.90
20839;DHT22;10580;51.092;6.828;2022-12-18T03:30:51;-3.30;99.90
20839;DHT22;10580;51.092;6.828;2022-12-18T03:33:27;-3.30;99.90
20839;DHT22;10580;51.092;6.828;2022-12-18T03:35:53;-3.30;99.90
20839;DHT22;10580;51.092;6.828;2022-12-18T03:38:19;-3.30;99.90
20839;DHT22;10580;51.092;6.828;2022-12-18T03:41:07;-3.30;99.90
20839;DHT22;10580;51.092;6.828;2022-12-18T03:49:12;-3.30;99.90
20839;DHT22;10580;51.092;6.828;2022-12-18T03:54:14;-3.30;99.90
20839;DHT22;10580;51.092;6.828;2022-12-18T03:56:43;-3.30;99.90
20839;DHT22;10580;51.092;6.828;2022-12-18T03:59:11;-3.30;99.90
20839;DHT22;10580;51.092;6.828;2022-12-18T04:01:41;-3.30;99.90
20839;DHT22;10580;51.092;6.828;2022-12-18T04:04:08;-3.40;99.90
20839;DHT22;10580;51.092;6.828;2022-12-18T04:06:35;-3.40;99.90
20839;DHT22;10580;51.092;6.828;2022-12-18T04:09:01;-3.40;99.90
20839;DHT22;10580;51.092;6.828;2022-12-18T04:11:27;-3.50;99.90
20839;DHT22;10580;51.092;6.828;2022-12-18T04:13:56;-3.50;99.90
20839;DHT22;10580;51.092;6.828;2022-12-18T04:16:26;-3.40;99.90
20839;DHT22;10580;51.092;6.828;2022-12-18T04:18:52;-3.50;99.90
20839;DHT22;10580;51.092;6.828;2022-12-18T04:21:18;-3.40;99.90
20839;DHT22;10580;51.092;6.828;2022-12-18T04:23:44;-3.40;99.90
20839;DHT22;10580;51.092;6.828;2022-12-18T04:26:10;-3.40;99.90
20839;DHT22;10580;51.092;6.828;2022-12-18T04:28:35;-3.40;99.90
20839;DHT22;10580;51.092;6.828;2022-12-18T04:31:01;-3.40;99.90
20839;DHT22;10580;51.092;6.828;2022-12-18T04:33:27;-3.40;99.90
20839;DHT22;10580;51.092;6.828;2022-12-18T04:35:53;-3.40;99.90
20839;DHT22;10580;51.092;6.828;2022-12-18T04:38:18;-3.40;99.90
20839;DHT22;10580;51.092;6.828;2022-12-18T04:40:44;-3.40;99.90
20839;DHT22;10580;51.092;6.828;2022-12-18T04:43:10;-3.40;99.90
20839;DHT22;10580;51.092;6.828;2022-12-18T04:45:35;-3.50;99.90
20839;DHT22;10580;51.092;6.828;2022-12-18T04:48:02;-3.50;99.90
20839;DHT22;10580;51.092;6.828;2022-12-18T04:50:28;-3.60;99.90
20839;DHT22;10580;51.092;6.828;2022-12-18T04:52:54;-3.60;99.90
20839;DHT22;10580;51.092;6.828;2022-12-18T04:55:20;-3.70;99.90
20839;DHT22;10580;51.092;6.828;2022-12-18T04:57:46;-3.70;99.90
20839;DHT22;10580;51.092;6.828;2022-12-18T05:00:12;-3.70;99.90
20839;DHT22;10580;51.092;6.828;2022-12-18T05:02:38;-3.80;99.90
20839;DHT22;10580;51.092;6.828;2022-12-18T05:05:04;-3.90;99.90
20839;DHT22;10580;51.092;6.828;2022-12-18T05:07:30;-3.90;99.90
20839;DHT22;10580;51.092;6.828;2022-12-18T05:09:55;-3.90;99.90
20839;DHT22;10580;51.092;6.828;2022-12-18T05:12:21;-3.90;99.90
20839;DHT22;10580;51.092;6.828;2022-12-18T05:14:46;-3.90;99.90
20839;DHT22;10580;51.092;6.828;2022-12-18T05:17:12;-4.00;99.90
20839;DHT22;10580;51.092;6.828;2022-12-18T05:19:38;-4.00;99.90
20839;DHT22;10580;51.092;6.828;2022-12-18T05:22:03;-4.00;99.90
20839;DHT22;10580;51.092;6.828;2022-12-18T05:24:29;-4.00;99.90
20839;DHT22;10580;51.092;6.828;2022-12-18T05:26:54;-3.90;99.90
20839;DHT22;10580;51.092;6.828;2022-12-18T05:29:20;-3.90;99.90
20839;DHT22;10580;51.092;6.828;2022-12-18T05:31:46;-4.00;99.90
20839;DHT22;10580;51.092;6.828;2022-12-18T05:34:11;-4.00;99.90
20839;DHT22;10580;51.092;6.828;2022-12-18T05:36:37;-4.00;99.90
20839;DHT22;10580;51.092;6.828;2022-12-18T05:39:02;-4.00;99.90
20839;DHT22;10580;51.092;6.828;2022-12-18T05:41:28;-4.00;99.90
20839;DHT22;10580;51.092;6.828;2022-12-18T05:43:54;-4.00;99.90
20839;DHT22;10580;51.092;6.828;2022-12-18T05:46:19;-4.00;99.90
20839;DHT22;10580;51.092;6.828;2022-12-18T05:48:45;-4.00;99.90
20839;DHT22;10580;51.092;6.828;2022-12-18T05:51:14;-4.00;99.90
20839;DHT22;10580;51.092;6.828;2022-12-18T05:53:40;-4.00;99.90
20839;DHT22;10580;51.092;6.828;2022-12-18T05:56:10;-3.90;99.90
20839;DHT22;10580;51.092;6.828;2022-12-18T05:58:36;-3.80;99.90
20839;DHT22;10580;51.092;6.828;2022-12-18T06:01:19;-3.70;99.90
20839;DHT22;10580;51.092;6.828;2022-12-18T06:03:45;-3.70;99.90
20839;DHT22;10580;51.092;6.828;2022-12-18T06:06:28;-3.60;99.90
20839;DHT22;10580;51.092;6.828;2022-12-18T06:08:54;-3.60;99.90
20839;DHT22;10580;51.092;6.828;2022-12-18T06:11:22;-3.60;99.90
20839;DHT22;10580;51.092;6.828;2022-12-18T06:13:53;-3.60;99.90
20839;DHT22;10580;51.092;6.828;2022-12-18T06:16:19;-3.60;99.90
20839;DHT22;10580;51.092;6.828;2022-12-18T06:18:45;-3.60;99.90
20839;DHT22;10580;51.092;6.828;2022-12-18T06:21:11;-3.60;99.90
20839;DHT22;10580;51.092;6.828;2022-12-18T06:23:36;-3.60;99.90
20839;DHT22;10580;51.092;6.828;2022-12-18T06:26:07;-3.60;99.90
20839;DHT22;10580;51.092;6.828;2022-12-18T06:28:33;-3.60;99.90
20839;DHT22;10580;51.092;6.828;2022-12-18T06:30:59;-3.60;99.90
20839;DHT22;10580;51.092;6.828;2022-12-18T06:33:28;-3.70;99.90
20839;DHT22;10580;51.092;6.828;2022-12-18T06:35:54;-3.70;99.90
20839;DHT22;10580;51.092;6.828;2022-12-18T06:38:20;-3.70;99.90
20839;DHT22;10580;51.092;6.828;2022-12-18T06:40:45;-3.70;99.90
20839;DHT22;10580;51.092;6.828;2022-12-18T06:43:11;-3.80;99.90
20839;DHT22;10580;51.092;6.828;2022-12-18T06:45:36;-3.80;99.90
20839;DHT22;10580;51.092;6.828;2022-12-18T06:48:02;-3.80;99.90
20839;DHT22;10580;51.092;6.828;2022-12-18T06:50:28;-3.80;99.90
20839;DHT22;10580;51.092;6.828;2022-12-18T06:52:53;-3.90;99.90
20839;DHT22;10580;51.092;6.828;2022-12-18T06:55:19;-3.80;99.90
20839;DHT22;10580;51.092;6.828;2022-12-18T06:57:45;-3.90;99.90
20839;DHT22;10580;51.092;6.828;2022-12-18T07:00:10;-3.80;99.90
20839;DHT22;10580;51.092;6.828;2022-12-18T07:02:36;-3.80;99.90
20839;DHT22;10580;51.092;6.828;2022-12-18T07:05:02;-3.80;99.90
20839;DHT22;10580;51.092;6.828;2022-12-18T07:07:27;-3.80;99.90
20839;DHT22;10580;51.092;6.828;2022-12-18T07:09:53;-3.90;99.90
20839;DHT22;10580;51.092;6.828;2022-12-18T07:12:19;-3.90;99.90
20839;DHT22;10580;51.092;6.828;2022-12-18T07:14:44;-3.90;99.90
20839;DHT22;10580;51.092;6.828;2022-12-18T07:17:10;-3.90;99.90
20839;DHT22;10580;51.092;6.828;2022-12-18T07:19:35;-3.90;99.90
20839;DHT22;10580;51.092;6.828;2022-12-18T07:22:01;-4.00;99.90
20839;DHT22;10580;51.092;6.828;2022-12-18T07:24:27;-4.00;99.90
20839;DHT22;10580;51.092;6.828;2022-12-18T07:26:53;-4.00;99.90
20839;DHT22;10580;51.092;6.828;2022-12-18T07:29:18;-4.00;99.90
20839;DHT22;10580;51.092;6.828;2022-12-18T07:31:44;-4.00;99.90
20839;DHT22;10580;51.092;6.828;2022-12-18T07:34:13;-4.00;99.90
20839;DHT22;10580;51.092;6.828;2022-12-18T07:36:39;-4.10;99.90
20839;DHT22;10580;51.092;6.828;2022-12-18T07:39:05;-4.10;99.90
20839;DHT22;10580;51.092;6.828;2022-12-18T07:41:31;-4.00;99.90
20839;DHT22;10580;51.092;6.828;2022-12-18T07:43:56;-4.10;99.90
20839;DHT22;10580;51.092;6.828;2022-12-18T07:46:22;-4.00;99.90
20839;DHT22;10580;51.092;6.828;2022-12-18T07:48:48;-4.00;99.90
20839;DHT22;10580;51.092;6.828;2022-12-18T07:51:14;-3.90;99.90
20839;DHT22;10580;51.092;6.828;2022-12-18T07:53:40;-3.90;99.90
20839;DHT22;10580;51.092;6.828;2022-12-18T07:56:09;-3.80;99.90
20839;DHT22;10580;51.092;6.828;2022-12-18T07:58:35;-3.80;99.90
20839;DHT22;10580;51.092;6.828;2022-12-18T08:01:10;-3.80;99.90
20839;DHT22;10580;51.092;6.828;2022-12-18T08:03:39;-3.70;99.90
20839;DHT22;10580;51.092;6.828;2022-12-18T08:06:07;-3.60;99.90
20839;DHT22;10580;51.092;6.828;2022-12-18T08:08:34;-3.60;99.90
20839;DHT22;10580;51.092;6.828;2022-12-18T08:11:00;-3.50;99.90
20839;DHT22;10580;51.092;6.828;2022-12-18T08:13:26;-3.50;99.90
20839;DHT22;10580;51.092;6.828;2022-12-18T08:16:10;-3.40;99.90
20839;DHT22;10580;51.092;6.828;2022-12-18T08:18:36;-3.40;99.90
20839;DHT22;10580;51.092;6.828;2022-12-18T08:21:17;-3.40;99.90
20839;DHT22;10580;51.092;6.828;2022-12-18T08:23:43;-3.40;99.90
20839;DHT22;10580;51.092;6.828;2022-12-18T08:26:11;-3.30;99.90
20839;DHT22;10580;51.092;6.828;2022-12-18T08:28:36;-3.30;99.90
20839;DHT22;10580;51.092;6.828;2022-12-18T08:31:02;-3.20;99.90
20839;DHT22;10580;51.092;6.828;2022-12-18T08:33:28;-3.20;99.90
20839;DHT22;10580;51.092;6.828;2022-12-18T08:35:53;-3.10;99.90
20839;DHT22;10580;51.092;6.828;2022-12-18T08:38:19;-3.00;99.90
20839;DHT22;10580;51.092;6.828;2022-12-18T08:40:45;-2.80;99.90
20839;DHT22;10580;51.092;6.828;2022-12-18T08:43:10;-2.60;99.90
20839;DHT22;10580;51.092;6.828;2022-12-18T08:45:55;-2.40;91.60
20839;DHT22;10580;51.092;6.828;2022-12-18T08:48:21;-2.20;63.80
20839;DHT22;10580;51.092;6.828;2022-12-18T08:51:00;-2.00;50.20
20839;DHT22;10580;51.092;6.828;2022-12-18T08:53:26;-1.80;42.00
20839;DHT22;10580;51.092;6.828;2022-12-18T08:55:52;-1.60;29.90
20839;DHT22;10580;51.092;6.828;2022-12-18T08:58:19;-1.50;16.10
20839;DHT22;10580;51.092;6.828;2022-12-18T09:00:44;-1.40;9.30
20839;DHT22;10580;51.092;6.828;2022-12-18T09:03:12;-1.30;1.20
20839;DHT22;10580;51.092;6.828;2022-12-18T09:05:38;-1.20;1.00
20839;DHT22;10580;51.092;6.828;2022-12-18T09:08:03;-1.10;1.00
20839;DHT22;10580;51.092;6.828;2022-12-18T09:10:29;-1.00;1.00
20839;DHT22;10580;51.092;6.828;2022-12-18T09:12:54;-0.90;1.00
20839;DHT22;10580;51.092;6.828;2022-12-18T09:15:21;-0.90;1.00
20839;DHT22;10580;51.092;6.828;2022-12-18T09:17:47;-1.10;1.00
20839;DHT22;10580;51.092;6.828;2022-12-18T09:20:13;-1.10;1.00
20839;DHT22;10580;51.092;6.828;2022-12-18T09:22:39;-1.20;1.00
20839;DHT22;10580;51.092;6.828;2022-12-18T09:25:04;-1.20;1.00
20839;DHT22;10580;51.092;6.828;2022-12-18T09:27:33;-1.10;1.00
20839;DHT22;10580;51.092;6.828;2022-12-18T09:29:59;-0.70;1.00
20839;DHT22;10580;51.092;6.828;2022-12-18T09:32:25;-0.30;1.00
20839;DHT22;10580;51.092;6.828;2022-12-18T09:34:50;0.10;1.00
20839;DHT22;10580;51.092;6.828;2022-12-18T09:37:16;0.40;1.00
20839;DHT22;10580;51.092;6.828;2022-12-18T09:39:41;0.30;1.00
20839;DHT22;10580;51.092;6.828;2022-12-18T09:42:20;0.20;1.00
20839;DHT22;10580;51.092;6.828;2022-12-18T09:44:50;0.00;1.00
20839;DHT22;10580;51.092;6.828;2022-12-18T09:47:30;0.00;1.00
20839;DHT22;10580;51.092;6.828;2022-12-18T09:50:03;-0.20;1.00
20839;DHT22;10580;51.092;6.828;2022-12-18T09:52:43;-0.30;1.00
20839;DHT22;10580;51.092;6.828;2022-12-18T09:57:59;-0.60;1.00
20839;DHT22;10580;51.092;6.828;2022-12-18T10:00:26;-0.60;1.00
20839;DHT22;10580;51.092;6.828;2022-12-18T10:02:56;-0.70;1.00
20839;DHT22;10580;51.092;6.828;2022-12-18T10:05:57;-0.70;1.00
20839;DHT22;10580;51.092;6.828;2022-12-18T10:11:29;-0.70;1.00
20839;DHT22;10580;51.092;6.828;2022-12-18T10:16:59;-0.60;1.00
20839;DHT22;10580;51.092;6.828;2022-12-18T10:24:53;-0.70;1.00
20839;DHT22;10580;51.092;6.828;2022-12-18T10:27:24;-0.60;1.00
20839;DHT22;10580;51.092;6.828;2022-12-18T10:29:50;-0.60;99.90
20839;DHT22;10580;51.092;6.828;2022-12-18T10:32:19;-0.60;99.90
20839;DHT22;10580;51.092;6.828;2022-12-18T10:34:49;-0.50;99.90
20839;DHT22;10580;51.092;6.828;2022-12-18T10:37:17;-0.50;99.90
20839;DHT22;10580;51.092;6.828;2022-12-18T10:39:43;-0.50;99.90
20839;DHT22;10580;51.092;6.828;2022-12-18T10:42:17;-0.40;99.90
20839;DHT22;10580;51.092;6.828;2022-12-18T10:44:45;-0.40;99.90
20839;DHT22;10580;51.092;6.828;2022-12-18T10:47:27;-0.40;99.90
20839;DHT22;10580;51.092;6.828;2022-12-18T10:49:56;-0.40;99.90
20839;DHT22;10580;51.092;6.828;2022-12-18T10:52:31;-0.30;99.90
20839;DHT22;10580;51.092;6.828;2022-12-18T10:55:03;-0.30;99.90
20839;DHT22;10580;51.092;6.828;2022-12-18T11:00:28;-0.30;99.90
20839;DHT22;10580;51.092;6.828;2022-12-18T11:02:54;-0.40;99.90
20839;DHT22;10580;51.092;6.828;2022-12-18T11:05:27;-0.30;99.90
20839;DHT22;10580;51.092;6.828;2022-12-18T11:08:01;-0.30;99.90
20839;DHT22;10580;51.092;6.828;2022-12-18T11:10:37;-0.20;99.90
20839;DHT22;10580;51.092;6.828;2022-12-18T11:13:15;-0.20;99.90
20839;DHT22;10580;51.092;6.828;2022-12-18T11:15:41;-0.20;99.90
20839;DHT22;10580;51.092;6.828;2022-12-18T11:18:23;-0.10;99.90
20839;DHT22;10580;51.092;6.828;2022-12-18T11:20:59;-0.10;99.90
20839;DHT22;10580;51.092;6.828;2022-12-18T11:23:27;0.00;99.90
20839;DHT22;10580;51.092;6.828;2022-12-18T11:25:58;0.00;62.70
20839;DHT22;10580;51.092;6.828;2022-12-18T11:31:26;-0.10;1.00
20839;DHT22;10580;51.092;6.828;2022-12-18T11:33:54;-0.10;1.00
20839;DHT22;10580;51.092;6.828;2022-12-18T11:36:21;-0.20;1.00
20839;DHT22;10580;51.092;6.828;2022-12-18T11:38:49;-0.20;1.00
20839;DHT22;10580;51.092;6.828;2022-12-18T11:44:35;-0.30;1.00
20839;DHT22;10580;51.092;6.828;2022-12-18T11:47:13;-0.30;27.70
20839;DHT22;10580;51.092;6.828;2022-12-18T11:49:41;-0.30;47.80
20839;DHT22;10580;51.092;6.828;2022-12-18T11:52:31;-0.30;48.20
20839;DHT22;10580;51.092;6.828;2022-12-18T11:55:04;-0.30;99.90
20839;DHT22;10580;51.092;6.828;2022-12-18T11:57:48;-0.40;99.90
20839;DHT22;10580;51.092;6.828;2022-12-18T12:00:19;-0.40;99.90
20839;DHT22;10580;51.092;6.828;2022-12-18T12:05:57;-0.30;99.90
20839;DHT22;10580;51.092;6.828;2022-12-18T12:22:07;-0.40;99.90
20839;DHT22;10580;51.092;6.828;2022-12-18T12:27:40;-0.40;99.90
20839;DHT22;10580;51.092;6.828;2022-12-18T12:30:21;-0.40;99.90
20839;DHT22;10580;51.092;6.828;2022-12-18T12:35:58;-0.40;99.90
20839;DHT22;10580;51.092;6.828;2022-12-18T12:38:33;-0.40;99.90
20839;DHT22;10580;51.092;6.828;2022-12-18T12:41:12;-0.30;99.90
20839;DHT22;10580;51.092;6.828;2022-12-18T12:43:59;-0.30;99.90
20839;DHT22;10580;51.092;6.828;2022-12-18T12:46:27;-0.30;99.90
20839;DHT22;10580;51.092;6.828;2022-12-18T12:48:59;-0.40;99.90
20839;DHT22;10580;51.092;6.828;2022-12-18T12:51:36;-0.40;99.90
20839;DHT22;10580;51.092;6.828;2022-12-18T12:54:13;-0.40;99.90
20839;DHT22;10580;51.092;6.828;2022-12-18T13:07:44;-0.50;99.90
20839;DHT22;10580;51.092;6.828;2022-12-18T13:13:06;-0.40;99.90
20839;DHT22;10580;51.092;6.828;2022-12-18T13:15:42;-0.30;99.90
20839;DHT22;10580;51.092;6.828;2022-12-18T13:18:18;-0.30;99.90
20839;DHT22;10580;51.092;6.828;2022-12-18T13:21:04;-0.40;99.90
20839;DHT22;10580;51.092;6.828;2022-12-18T13:23:36;-0.40;99.90
20839;DHT22;10580;51.092;6.828;2022-12-18T13:36:50;-0.30;99.90
20839;DHT22;10580;51.092;6.828;2022-12-18T13:41:53;-0.30;1.00
20839;DHT22;10580;51.092;6.828;2022-12-18T13:44:35;-0.30;1.00
20839;DHT22;10580;51.092;6.828;2022-12-18T13:47:03;-0.40;1.00
20839;DHT22;10580;51.092;6.828;2022-12-18T13:49:36;-0.40;1.00
20839;DHT22;10580;51.092;6.828;2022-12-18T13:52:03;-0.40;1.00
20839;DHT22;10580;51.092;6.828;2022-12-18T13:54:40;-0.50;1.00
20839;DHT22;10580;51.092;6.828;2022-12-18T13:57:30;-0.50;1.00
20839;DHT22;10580;51.092;6.828;2022-12-18T13:59:57;-0.50;1.00
20839;DHT22;10580;51.092;6.828;2022-12-18T14:02:25;-0.50;1.00
20839;DHT22;10580;51.092;6.828;2022-12-18T14:04:52;-0.60;1.00
20839;DHT22;10580;51.092;6.828;2022-12-18T14:09:53;-0.60;1.00
20839;DHT22;10580;51.092;6.828;2022-12-18T14:12:30;-0.60;1.00
20839;DHT22;10580;51.092;6.828;2022-12-18T14:15:44;-0.70;1.00
20839;DHT22;10580;51.092;6.828;2022-12-18T14:21:03;-0.80;1.00
20839;DHT22;10580;51.092;6.828;2022-12-18T14:23:33;-0.80;1.00
20839;DHT22;10580;51.092;6.828;2022-12-18T14:26:19;-0.80;1.00
20839;DHT22;10580;51.092;6.828;2022-12-18T14:28:44;-0.80;1.00
20839;DHT22;10580;51.092;6.828;2022-12-18T14:31:25;-0.80;1.00
20839;DHT22;10580;51.092;6.828;2022-12-18T14:33:51;-0.80;1.00
20839;DHT22;10580;51.092;6.828;2022-12-18T14:36:27;-0.90;1.00
20839;DHT22;10580;51.092;6.828;2022-12-18T14:38:57;-0.90;1.00
20839;DHT22;10580;51.092;6.828;2022-12-18T14:41:24;-0.90;1.00
20839;DHT22;10580;51.092;6.828;2022-12-18T14:43:51;-0.90;1.00
20839;DHT22;10580;51.092;6.828;2022-12-18T14:49:01;-0.90;1.00
20839;DHT22;10580;51.092;6.828;2022-12-18T14:51:30;-0.90;1.00
20839;DHT22;10580;51.092;6.828;2022-12-18T14:53:59;-1.00;1.00
20839;DHT22;10580;51.092;6.828;2022-12-18T14:56:33;-1.00;1.00
20839;DHT22;10580;51.092;6.828;2022-12-18T14:59:17;-1.00;1.00
20839;DHT22;10580;51.092;6.828;2022-12-18T15:04:32;-1.00;1.00
20839;DHT22;10580;51.092;6.828;2022-12-18T15:07:12;-1.00;1.00
20839;DHT22;10580;51.092;6.828;2022-12-18T15:09:40;-1.00;1.00
20839;DHT22;10580;51.092;6.828;2022-12-18T15:12:37;-1.00;1.00
20839;DHT22;10580;51.092;6.828;2022-12-18T15:15:05;-1.10;1.00
20839;DHT22;10580;51.092;6.828;2022-12-18T15:17:30;-1.10;1.00
20839;DHT22;10580;51.092;6.828;2022-12-18T15:20:09;-1.10;1.00
20839;DHT22;10580;51.092;6.828;2022-12-18T15:22:36;-1.10;1.00
20839;DHT22;10580;51.092;6.828;2022-12-18T15:25:04;-1.10;1.00
20839;DHT22;10580;51.092;6.828;2022-12-18T15:27:47;-1.10;1.00
20839;DHT22;10580;51.092;6.828;2022-12-18T15:30:19;-1.10;1.00
20839;DHT22;10580;51.092;6.828;2022-12-18T15:32:46;-1.10;1.00
20839;DHT22;10580;51.092;6.828;2022-12-18T15:35:15;-1.10;1.00
20839;DHT22;10580;51.092;6.828;2022-12-18T15:37:41;-1.10;1.00
20839;DHT22;10580;51.092;6.828;2022-12-18T15:40:11;-1.10;1.00
20839;DHT22;10580;51.092;6.828;2022-12-18T15:42:37;-1.10;1.00
20839;DHT22;10580;51.092;6.828;2022-12-18T15:45:21;-1.10;1.00
20839;DHT22;10580;51.092;6.828;2022-12-18T15:47:49;-1.10;1.00
20839;DHT22;10580;51.092;6.828;2022-12-18T15:50:14;-1.10;1.00
20839;DHT22;10580;51.092;6.828;2022-12-18T15:52:43;-1.10;1.00
20839;DHT22;10580;51.092;6.828;2022-12-18T15:55:13;-1.10;1.00
20839;DHT22;10580;51.092;6.828;2022-12-18T15:57:57;-1.10;1.00
20839;DHT22;10580;51.092;6.828;2022-12-18T16:00:23;-1.20;1.00
20839;DHT22;10580;51.092;6.828;2022-12-18T16:02:48;-1.20;1.00
20839;DHT22;10580;51.092;6.828;2022-12-18T16:05:15;-1.20;1.00
20839;DHT22;10580;51.092;6.828;2022-12-18T16:07:44;-1.20;1.00
20839;DHT22;10580;51.092;6.828;2022-12-18T16:10:10;-1.20;1.00
20839;DHT22;10580;51.092;6.828;2022-12-18T16:12:36;-1.20;1.00
20839;DHT22;10580;51.092;6.828;2022-12-18T16:15:03;-1.30;1.00
20839;DHT22;10580;51.092;6.828;2022-12-18T16:17:29;-1.20;1.00
20839;DHT22;10580;51.092;6.828;2022-12-18T16:19:55;-1.30;1.00
20839;DHT22;10580;51.092;6.828;2022-12-18T16:22:26;-1.30;1.00
20839;DHT22;10580;51.092;6.828;2022-12-18T16:24:52;-1.30;1.00
20839;DHT22;10580;51.092;6.828;2022-12-18T16:27:22;-1.30;1.00
20839;DHT22;10580;51.092;6.828;2022-12-18T16:29:48;-1.30;1.00
20839;DHT22;10580;51.092;6.828;2022-12-18T16:32:25;-1.30;1.00
20839;DHT22;10580;51.092;6.828;2022-12-18T16:34:50;-1.40;1.00
20839;DHT22;10580;51.092;6.828;2022-12-18T16:37:16;-1.40;1.00
20839;DHT22;10580;51.092;6.828;2022-12-18T16:39:49;-1.40;1.00
20839;DHT22;10580;51.092;6.828;2022-12-18T16:42:19;-1.40;1.00
20839;DHT22;10580;51.092;6.828;2022-12-18T16:44:46;-1.40;1.00
20839;DHT22;10580;51.092;6.828;2022-12-18T16:47:16;-1.40;1.00
20839;DHT22;10580;51.092;6.828;2022-12-18T16:49:44;-1.40;1.00
20839;DHT22;10580;51.092;6.828;2022-12-18T16:52:10;-1.40;1.00
20839;DHT22;10580;51.092;6.828;2022-12-18T16:54:42;-1.40;1.00
20839;DHT22;10580;51.092;6.828;2022-12-18T17:00:24;-1.40;1.00
20839;DHT22;10580;51.092;6.828;2022-12-18T17:02:49;-1.40;1.00
20839;DHT22;10580;51.092;6.828;2022-12-18T17:05:24;-1.40;1.00
20839;DHT22;10580;51.092;6.828;2022-12-18T17:07:49;-1.40;1.00
20839;DHT22;10580;51.092;6.828;2022-12-18T17:10:15;-1.40;1.00
20839;DHT22;10580;51.092;6.828;2022-12-18T17:12:41;-1.40;1.00
20839;DHT22;10580;51.092;6.828;2022-12-18T17:15:11;-1.50;1.00
20839;DHT22;10580;51.092;6.828;2022-12-18T17:17:47;-1.50;1.00
20839;DHT22;10580;51.092;6.828;2022-12-18T17:20:18;-1.50;1.00
20839;DHT22;10580;51.092;6.828;2022-12-18T17:22:46;-1.50;1.00
20839;DHT22;10580;51.092;6.828;2022-12-18T17:25:11;-1.50;1.00
20839;DHT22;10580;51.092;6.828;2022-12-18T17:27:44;-1.50;1.00
20839;DHT22;10580;51.092;6.828;2022-12-18T17:30:10;-1.50;1.00
20839;DHT22;10580;51.092;6.828;2022-12-18T17:32:38;-1.60;1.00